sensor_id;sensor_type;location;lat;lon;timestamp;P1;durP1;ratioP1;P2;durP2;ratioP2
12990;SDS011;6560;57.692;11.958;2023-10-31T00:01:32;1.13;;;0.30;;
12990;SDS011;6560;57.692;11.958;2023-10-31T00:03:58;2.13;;;0.30;;
12990;SDS011;6560;57.692;11.958;2023-10-31T00:06:23;1.50;;;0.20;;
12990;SDS011;6560;57.692;11.958;2023-10-31T00:08:48;0.33;;;0.33;;
12990;SDS011;6560;57.692;11.958;2023-10-31T00:11:14;0.37;;;0.30;;
12990;SDS011;6560;57.692;11.958;2023-10-31T00:13:39;0.63;;;0.30;;
12990;SDS011;6560;57.692;11.958;2023-10-31T00:16:05;0.47;;;0.30;;
12990;SDS011;6560;57.692;11.958;2023-10-31T00:18:31;0.67;;;0.20;;
12990;SDS011;6560;57.692;11.958;2023-10-31T00:20:56;0.20;;;0.20;;
12990;SDS011;6560;57.692;11.958;2023-10-31T00:23:22;1.50;;;0.33;;
12990;SDS011;6560;57.692;11.958;2023-10-31T00:25:47;1.77;;;0.50;;
12990;SDS011;6560;57.692;11.958;2023-10-31T00:28:13;0.57;;;0.20;;
12990;SDS011;6560;57.692;11.958;2023-10-31T00:30:38;0.20;;;0.20;;
12990;SDS011;6560;57.692;11.958;2023-10-31T00:33:04;1.63;;;0.50;;
12990;SDS011;6560;57.692;11.958;2023-10-31T00:35:29;0.20;;;0.20;;
12990;SDS011;6560;57.692;11.958;2023-10-31T00:37:56;0.30;;;0.20;;
12990;SDS011;6560;57.692;11.958;2023-10-31T00:40:21;1.03;;;0.30;;
12990;SDS011;6560;57.692;11.958;2023-10-31T00:42:47;1.27;;;0.20;;
12990;SDS011;6560;57.692;11.958;2023-10-31T00:45:12;1.23;;;0.40;;
12990;SDS011;6560;57.692;11.958;2023-10-31T00:47:38;2.20;;;0.57;;
12990;SDS011;6560;57.692;11.958;2023-10-31T00:50:03;0.60;;;0.60;;
12990;SDS011;6560;57.692;11.958;2023-10-31T00:52:29;1.47;;;0.20;;
12990;SDS011;6560;57.692;11.958;2023-10-31T00:54:54;0.40;;;0.33;;
12990;SDS011;6560;57.692;11.958;2023-10-31T00:57:20;0.37;;;0.20;;
12990;SDS011;6560;57.692;11.958;2023-10-31T00:59:45;0.63;;;0.30;;
12990;SDS011;6560;57.692;11.958;2023-10-31T01:02:11;1.33;;;0.30;;
12990;SDS011;6560;57.692;11.958;2023-10-31T01:04:36;0.93;;;0.23;;
12990;SDS011;6560;57.692;11.958;2023-10-31T01:07:02;0.10;;;0.10;;
12990;SDS011;6560;57.692;11.958;2023-10-31T01:09:28;1.13;;;0.30;;
12990;SDS011;6560;57.692;11.958;2023-10-31T01:11:53;0.20;;;0.20;;
12990;SDS011;6560;57.692;11.958;2023-10-31T01:14:19;0.77;;;0.40;;
12990;SDS011;6560;57.692;11.958;2023-10-31T01:16:45;0.33;;;0.20;;
12990;SDS011;6560;57.692;11.958;2023-10-31T01:19:10;0.17;;;0.17;;
12990;SDS011;6560;57.692;11.958;2023-10-31T01:21:36;0.13;;;0.13;;
12990;SDS011;6560;57.692;11.958;2023-10-31T01:24:01;1.57;;;0.30;;
12990;SDS011;6560;57.692;11.958;2023-10-31T01:26:27;0.30;;;0.27;;
12990;SDS011;6560;57.692;11.958;2023-10-31T01:28:52;0.33;;;0.20;;
12990;SDS011;6560;57.692;11.958;2023-10-31T01:31:18;0.53;;;0.27;;
12990;SDS011;6560;57.692;11.958;2023-10-31T01:33:43;0.10;;;0.10;;
12990;SDS011;6560;57.692;11.958;2023-10-31T01:36:10;0.10;;;0.10;;
12990;SDS011;6560;57.692;11.958;2023-10-31T01:38:37;0.27;;;0.20;;
12990;SDS011;6560;57.692;11.958;2023-10-31T01:41:03;0.23;;;0.20;;
12990;SDS011;6560;57.692;11.958;2023-10-31T01:43:37;0.10;;;0.10;;
12990;SDS011;6560;57.692;11.958;2023-10-31T01:46:03;4.20;;;1.20;;
12990;SDS011;6560;57.692;11.958;2023-10-31T01:48:30;0.20;;;0.20;;
12990;SDS011;6560;57.692;11.958;2023-10-31T01:50:57;0.20;;;0.20;;
12990;SDS011;6560;57.692;11.958;2023-10-31T01:53:24;0.20;;;0.20;;
12990;SDS011;6560;57.692;11.958;2023-10-31T01:55:51;0.77;;;0.20;;
12990;SDS011;6560;57.692;11.958;2023-10-31T01:58:20;0.20;;;0.20;;
12990;SDS011;6560;57.692;11.958;2023-10-31T02:00:50;0.27;;;0.20;;
12990;SDS011;6560;57.692;11.958;2023-10-31T02:03:16;0.10;;;0.10;;
12990;SDS011;6560;57.692;11.958;2023-10-31T02:05:42;0.20;;;0.20;;
12990;SDS011;6560;57.692;11.958;2023-10-31T02:08:08;1.03;;;0.30;;
12990;SDS011;6560;57.692;11.958;2023-10-31T02:10:33;0.30;;;0.30;;
12990;SDS011;6560;57.692;11.958;2023-10-31T02:13:09;0.10;;;0.10;;
12990;SDS011;6560;57.692;11.958;2023-10-31T02:15:42;0.33;;;0.20;;
12990;SDS011;6560;57.692;11.958;2023-10-31T02:18:08;0.10;;;0.10;;
12990;SDS011;6560;57.692;11.958;2023-10-31T02:20:33;0.10;;;0.10;;
12990;SDS011;6560;57.692;11.958;2023-10-31T02:22:59;0.10;;;0.10;;
12990;SDS011;6560;57.692;11.958;2023-10-31T02:25:25;0.13;;;0.13;;
12990;SDS011;6560;57.692;11.958;2023-10-31T02:27:50;0.10;;;0.10;;
12990;SDS011;6560;57.692;11.958;2023-10-31T02:30:16;0.20;;;0.20;;
12990;SDS011;6560;57.692;11.958;2023-10-31T02:32:42;0.10;;;0.10;;
12990;SDS011;6560;57.692;11.958;2023-10-31T02:35:07;0.20;;;0.20;;
12990;SDS011;6560;57.692;11.958;2023-10-31T02:37:33;0.10;;;0.10;;
12990;SDS011;6560;57.692;11.958;2023-10-31T02:39:59;0.17;;;0.17;;
12990;SDS011;6560;57.692;11.958;2023-10-31T02:42:25;0.10;;;0.10;;
12990;SDS011;6560;57.692;11.958;2023-10-31T02:44:51;0.20;;;0.20;;
12990;SDS011;6560;57.692;11.958;2023-10-31T02:47:17;0.30;;;0.30;;
12990;SDS011;6560;57.692;11.958;2023-10-31T02:49:42;0.47;;;0.20;;
12990;SDS011;6560;57.692;11.958;2023-10-31T02:52:08;0.20;;;0.20;;
12990;SDS011;6560;57.692;11.958;2023-10-31T02:54:33;0.10;;;0.10;;
12990;SDS011;6560;57.692;11.958;2023-10-31T02:56:59;0.10;;;0.10;;
12990;SDS011;6560;57.692;11.958;2023-10-31T02:59:24;0.20;;;0.20;;
12990;SDS011;6560;57.692;11.958;2023-10-31T03:01:50;0.20;;;0.20;;
12990;SDS011;6560;57.692;11.958;2023-10-31T03:04:15;0.20;;;0.20;;
12990;SDS011;6560;57.692;11.958;2023-10-31T03:06:41;0.30;;;0.30;;
12990;SDS011;6560;57.692;11.958;2023-10-31T03:09:07;0.20;;;0.20;;
12990;SDS011;6560;57.692;11.958;2023-10-31T03:11:33;0.40;;;0.30;;
12990;SDS011;6560;57.692;11.958;2023-10-31T03:13:58;0.30;;;0.30;;
12990;SDS011;6560;57.692;11.958;2023-10-31T03:16:24;0.50;;;0.50;;
12990;SDS011;6560;57.692;11.958;2023-10-31T03:18:49;0.50;;;0.40;;
12990;SDS011;6560;57.692;11.958;2023-10-31T03:21:15;0.57;;;0.57;;
12990;SDS011;6560;57.692;11.958;2023-10-31T03:23:41;0.60;;;0.60;;
12990;SDS011;6560;57.692;11.958;2023-10-31T03:26:08;0.50;;;0.50;;
12990;SDS011;6560;57.692;11.958;2023-10-31T03:28:34;0.80;;;0.73;;
12990;SDS011;6560;57.692;11.958;2023-10-31T03:30:59;0.70;;;0.60;;
12990;SDS011;6560;57.692;11.958;2023-10-31T03:33:24;0.50;;;0.50;;
12990;SDS011;6560;57.692;11.958;2023-10-31T03:35:50;0.87;;;0.70;;
12990;SDS011;6560;57.692;11.958;2023-10-31T03:38:15;0.77;;;0.60;;
12990;SDS011;6560;57.692;11.958;2023-10-31T03:40:41;0.60;;;0.60;;
12990;SDS011;6560;57.692;11.958;2023-10-31T03:43:06;0.50;;;0.50;;
12990;SDS011;6560;57.692;11.958;2023-10-31T03:45:32;0.40;;;0.40;;
12990;SDS011;6560;57.692;11.958;2023-10-31T03:47:58;1.20;;;0.20;;
12990;SDS011;6560;57.692;11.958;2023-10-31T03:50:23;1.10;;;0.30;;
12990;SDS011;6560;57.692;11.958;2023-10-31T03:52:49;0.47;;;0.30;;
12990;SDS011;6560;57.692;11.958;2023-10-31T03:55:14;1.47;;;0.40;;
12990;SDS011;6560;57.692;11.958;2023-10-31T03:57:40;1.77;;;0.30;;
12990;SDS011;6560;57.692;11.958;2023-10-31T04:00:06;0.97;;;0.50;;
12990;SDS011;6560;57.692;11.958;2023-10-31T04:02:32;1.80;;;0.37;;
12990;SDS011;6560;57.692;11.958;2023-10-31T04:04:58;0.93;;;0.50;;
12990;SDS011;6560;57.692;11.958;2023-10-31T04:07:23;0.20;;;0.20;;
12990;SDS011;6560;57.692;11.958;2023-10-31T04:09:49;0.20;;;0.20;;
12990;SDS011;6560;57.692;11.958;2023-10-31T04:12:14;0.20;;;0.20;;
12990;SDS011;6560;57.692;11.958;2023-10-31T04:14:40;0.20;;;0.20;;
12990;SDS011;6560;57.692;11.958;2023-10-31T04:17:06;0.40;;;0.30;;
12990;SDS011;6560;57.692;11.958;2023-10-31T04:19:31;0.37;;;0.37;;
12990;SDS011;6560;57.692;11.958;2023-10-31T04:21:57;0.20;;;0.20;;
12990;SDS011;6560;57.692;11.958;2023-10-31T04:24:22;0.37;;;0.30;;
12990;SDS011;6560;57.692;11.958;2023-10-31T04:26:48;0.20;;;0.20;;
12990;SDS011;6560;57.692;11.958;2023-10-31T04:29:14;0.47;;;0.30;;
12990;SDS011;6560;57.692;11.958;2023-10-31T04:31:39;1.23;;;1.13;;
12990;SDS011;6560;57.692;11.958;2023-10-31T04:34:04;0.20;;;0.20;;
12990;SDS011;6560;57.692;11.958;2023-10-31T04:36:30;0.30;;;0.30;;
12990;SDS011;6560;57.692;11.958;2023-10-31T04:38:55;0.30;;;0.30;;
12990;SDS011;6560;57.692;11.958;2023-10-31T04:41:21;0.20;;;0.20;;
12990;SDS011;6560;57.692;11.958;2023-10-31T04:43:46;0.30;;;0.30;;
12990;SDS011;6560;57.692;11.958;2023-10-31T04:46:12;1.50;;;0.30;;
12990;SDS011;6560;57.692;11.958;2023-10-31T04:48:37;1.50;;;0.30;;
12990;SDS011;6560;57.692;11.958;2023-10-31T04:51:03;0.20;;;0.20;;
12990;SDS011;6560;57.692;11.958;2023-10-31T04:53:29;0.30;;;0.30;;
12990;SDS011;6560;57.692;11.958;2023-10-31T04:55:54;0.20;;;0.20;;
12990;SDS011;6560;57.692;11.958;2023-10-31T04:58:20;0.30;;;0.30;;
12990;SDS011;6560;57.692;11.958;2023-10-31T05:00:46;0.30;;;0.30;;
12990;SDS011;6560;57.692;11.958;2023-10-31T05:03:12;0.40;;;0.40;;
12990;SDS011;6560;57.692;11.958;2023-10-31T05:05:37;0.57;;;0.53;;
12990;SDS011;6560;57.692;11.958;2023-10-31T05:08:03;0.83;;;0.53;;
12990;SDS011;6560;57.692;11.958;2023-10-31T05:10:28;0.30;;;0.30;;
12990;SDS011;6560;57.692;11.958;2023-10-31T05:12:54;0.43;;;0.43;;
12990;SDS011;6560;57.692;11.958;2023-10-31T05:15:19;0.67;;;0.50;;
12990;SDS011;6560;57.692;11.958;2023-10-31T05:17:45;0.30;;;0.30;;
12990;SDS011;6560;57.692;11.958;2023-10-31T05:20:10;0.73;;;0.50;;
12990;SDS011;6560;57.692;11.958;2023-10-31T05:22:36;0.90;;;0.60;;
12990;SDS011;6560;57.692;11.958;2023-10-31T05:25:02;0.57;;;0.57;;
12990;SDS011;6560;57.692;11.958;2023-10-31T05:27:28;0.43;;;0.43;;
12990;SDS011;6560;57.692;11.958;2023-10-31T05:29:54;2.50;;;0.80;;
12990;SDS011;6560;57.692;11.958;2023-10-31T05:32:19;0.40;;;0.40;;
12990;SDS011;6560;57.692;11.958;2023-10-31T05:34:45;0.60;;;0.50;;
12990;SDS011;6560;57.692;11.958;2023-10-31T05:37:10;4.03;;;0.50;;
12990;SDS011;6560;57.692;11.958;2023-10-31T05:39:36;0.83;;;0.60;;
12990;SDS011;6560;57.692;11.958;2023-10-31T05:42:02;2.23;;;0.80;;
12990;SDS011;6560;57.692;11.958;2023-10-31T05:44:28;1.13;;;0.70;;
12990;SDS011;6560;57.692;11.958;2023-10-31T05:46:53;0.77;;;0.60;;
12990;SDS011;6560;57.692;11.958;2023-10-31T05:49:19;1.87;;;0.80;;
12990;SDS011;6560;57.692;11.958;2023-10-31T05:51:44;3.07;;;0.70;;
12990;SDS011;6560;57.692;11.958;2023-10-31T05:54:10;2.20;;;0.90;;
12990;SDS011;6560;57.692;11.958;2023-10-31T05:56:36;0.40;;;0.40;;
12990;SDS011;6560;57.692;11.958;2023-10-31T05:59:01;0.67;;;0.60;;
12990;SDS011;6560;57.692;11.958;2023-10-31T06:01:27;1.90;;;0.60;;
12990;SDS011;6560;57.692;11.958;2023-10-31T06:03:52;0.53;;;0.53;;
12990;SDS011;6560;57.692;11.958;2023-10-31T06:06:18;1.67;;;0.70;;
12990;SDS011;6560;57.692;11.958;2023-10-31T06:08:43;0.67;;;0.67;;
12990;SDS011;6560;57.692;11.958;2023-10-31T06:11:09;0.67;;;0.43;;
12990;SDS011;6560;57.692;11.958;2023-10-31T06:13:39;0.60;;;0.60;;
12990;SDS011;6560;57.692;11.958;2023-10-31T06:16:04;0.97;;;0.50;;
12990;SDS011;6560;57.692;11.958;2023-10-31T06:18:30;1.70;;;0.53;;
12990;SDS011;6560;57.692;11.958;2023-10-31T06:20:55;0.73;;;0.57;;
12990;SDS011;6560;57.692;11.958;2023-10-31T06:23:21;1.63;;;0.30;;
12990;SDS011;6560;57.692;11.958;2023-10-31T06:25:46;0.40;;;0.40;;
12990;SDS011;6560;57.692;11.958;2023-10-31T06:28:12;0.40;;;0.40;;
12990;SDS011;6560;57.692;11.958;2023-10-31T06:30:38;0.40;;;0.40;;
12990;SDS011;6560;57.692;11.958;2023-10-31T06:33:03;0.87;;;0.87;;
12990;SDS011;6560;57.692;11.958;2023-10-31T06:35:29;0.37;;;0.37;;
12990;SDS011;6560;57.692;11.958;2023-10-31T06:37:55;0.40;;;0.40;;
12990;SDS011;6560;57.692;11.958;2023-10-31T06:40:22;0.47;;;0.47;;
12990;SDS011;6560;57.692;11.958;2023-10-31T06:42:48;2.77;;;1.07;;
12990;SDS011;6560;57.692;11.958;2023-10-31T06:45:13;0.63;;;0.63;;
12990;SDS011;6560;57.692;11.958;2023-10-31T06:47:39;1.10;;;0.70;;
12990;SDS011;6560;57.692;11.958;2023-10-31T06:50:05;0.50;;;0.50;;
12990;SDS011;6560;57.692;11.958;2023-10-31T06:52:32;0.60;;;0.60;;
12990;SDS011;6560;57.692;11.958;2023-10-31T06:54:58;0.87;;;0.80;;
12990;SDS011;6560;57.692;11.958;2023-10-31T06:57:23;1.43;;;0.90;;
12990;SDS011;6560;57.692;11.958;2023-10-31T06:59:49;0.90;;;0.47;;
12990;SDS011;6560;57.692;11.958;2023-10-31T07:02:14;0.80;;;0.80;;
12990;SDS011;6560;57.692;11.958;2023-10-31T07:04:40;1.53;;;0.50;;
12990;SDS011;6560;57.692;11.958;2023-10-31T07:07:05;0.70;;;0.70;;
12990;SDS011;6560;57.692;11.958;2023-10-31T07:09:31;1.00;;;0.60;;
12990;SDS011;6560;57.692;11.958;2023-10-31T07:11:56;0.60;;;0.60;;
12990;SDS011;6560;57.692;11.958;2023-10-31T07:14:22;0.80;;;0.80;;
12990;SDS011;6560;57.692;11.958;2023-10-31T07:16:47;1.17;;;0.90;;
12990;SDS011;6560;57.692;11.958;2023-10-31T07:19:13;1.87;;;0.70;;
12990;SDS011;6560;57.692;11.958;2023-10-31T07:21:39;1.63;;;1.30;;
12990;SDS011;6560;57.692;11.958;2023-10-31T07:24:05;3.00;;;0.73;;
12990;SDS011;6560;57.692;11.958;2023-10-31T07:26:33;1.37;;;0.67;;
12990;SDS011;6560;57.692;11.958;2023-10-31T07:28:59;1.90;;;0.80;;
12990;SDS011;6560;57.692;11.958;2023-10-31T07:31:25;2.77;;;0.83;;
12990;SDS011;6560;57.692;11.958;2023-10-31T07:33:50;0.93;;;0.83;;
12990;SDS011;6560;57.692;11.958;2023-10-31T07:36:16;3.17;;;1.37;;
12990;SDS011;6560;57.692;11.958;2023-10-31T07:38:41;3.20;;;1.40;;
12990;SDS011;6560;57.692;11.958;2023-10-31T07:41:07;1.27;;;0.90;;
12990;SDS011;6560;57.692;11.958;2023-10-31T07:43:32;2.63;;;1.30;;
12990;SDS011;6560;57.692;11.958;2023-10-31T07:45:57;4.03;;;1.70;;
12990;SDS011;6560;57.692;11.958;2023-10-31T07:48:23;1.00;;;0.90;;
12990;SDS011;6560;57.692;11.958;2023-10-31T07:50:48;1.47;;;1.03;;
12990;SDS011;6560;57.692;11.958;2023-10-31T07:53:14;3.20;;;1.07;;
12990;SDS011;6560;57.692;11.958;2023-10-31T07:55:39;3.23;;;1.13;;
12990;SDS011;6560;57.692;11.958;2023-10-31T07:58:05;1.80;;;0.73;;
12990;SDS011;6560;57.692;11.958;2023-10-31T08:00:30;1.23;;;0.97;;
12990;SDS011;6560;57.692;11.958;2023-10-31T08:02:57;0.77;;;0.77;;
12990;SDS011;6560;57.692;11.958;2023-10-31T08:05:22;4.27;;;1.07;;
12990;SDS011;6560;57.692;11.958;2023-10-31T08:07:47;1.63;;;0.90;;
12990;SDS011;6560;57.692;11.958;2023-10-31T08:10:13;4.20;;;0.90;;
12990;SDS011;6560;57.692;11.958;2023-10-31T08:12:39;0.80;;;0.80;;
12990;SDS011;6560;57.692;11.958;2023-10-31T08:15:04;0.70;;;0.30;;
12990;SDS011;6560;57.692;11.958;2023-10-31T08:17:30;0.80;;;0.70;;
12990;SDS011;6560;57.692;11.958;2023-10-31T08:19:56;0.40;;;0.40;;
12990;SDS011;6560;57.692;11.958;2023-10-31T08:22:21;0.63;;;0.33;;
12990;SDS011;6560;57.692;11.958;2023-10-31T08:24:47;0.40;;;0.40;;
12990;SDS011;6560;57.692;11.958;2023-10-31T08:27:13;1.33;;;0.30;;
12990;SDS011;6560;57.692;11.958;2023-10-31T08:29:39;0.30;;;0.30;;
12990;SDS011;6560;57.692;11.958;2023-10-31T08:32:05;0.77;;;0.40;;
12990;SDS011;6560;57.692;11.958;2023-10-31T08:34:31;2.70;;;0.40;;
12990;SDS011;6560;57.692;11.958;2023-10-31T08:36:56;2.07;;;0.50;;
12990;SDS011;6560;57.692;11.958;2023-10-31T08:39:23;0.30;;;0.30;;
12990;SDS011;6560;57.692;11.958;2023-10-31T08:41:49;0.43;;;0.43;;
12990;SDS011;6560;57.692;11.958;2023-10-31T08:44:22;2.40;;;0.37;;
12990;SDS011;6560;57.692;11.958;2023-10-31T08:46:48;2.67;;;0.47;;
12990;SDS011;6560;57.692;11.958;2023-10-31T08:49:14;0.30;;;0.30;;
12990;SDS011;6560;57.692;11.958;2023-10-31T08:51:40;0.27;;;0.27;;
12990;SDS011;6560;57.692;11.958;2023-10-31T08:54:06;0.40;;;0.37;;
12990;SDS011;6560;57.692;11.958;2023-10-31T08:56:32;1.03;;;0.60;;
12990;SDS011;6560;57.692;11.958;2023-10-31T08:58:58;0.80;;;0.60;;
12990;SDS011;6560;57.692;11.958;2023-10-31T09:01:23;0.33;;;0.33;;
12990;SDS011;6560;57.692;11.958;2023-10-31T09:03:49;0.70;;;0.70;;
12990;SDS011;6560;57.692;11.958;2023-10-31T09:06:14;1.13;;;0.63;;
12990;SDS011;6560;57.692;11.958;2023-10-31T09:08:40;2.30;;;0.80;;
12990;SDS011;6560;57.692;11.958;2023-10-31T09:11:05;1.67;;;0.87;;
12990;SDS011;6560;57.692;11.958;2023-10-31T09:13:31;1.40;;;0.90;;
12990;SDS011;6560;57.692;11.958;2023-10-31T09:15:57;2.60;;;1.67;;
12990;SDS011;6560;57.692;11.958;2023-10-31T09:18:25;1.67;;;0.90;;
12990;SDS011;6560;57.692;11.958;2023-10-31T09:20:51;0.67;;;0.67;;
12990;SDS011;6560;57.692;11.958;2023-10-31T09:23:17;4.27;;;1.00;;
12990;SDS011;6560;57.692;11.958;2023-10-31T09:25:43;1.43;;;0.50;;
12990;SDS011;6560;57.692;11.958;2023-10-31T09:28:08;1.60;;;0.70;;
12990;SDS011;6560;57.692;11.958;2023-10-31T09:30:34;2.63;;;0.80;;
12990;SDS011;6560;57.692;11.958;2023-10-31T09:33:00;3.57;;;0.77;;
12990;SDS011;6560;57.692;11.958;2023-10-31T09:35:25;1.17;;;0.90;;
12990;SDS011;6560;57.692;11.958;2023-10-31T09:37:51;3.23;;;1.10;;
12990;SDS011;6560;57.692;11.958;2023-10-31T09:40:17;1.87;;;1.07;;
12990;SDS011;6560;57.692;11.958;2023-10-31T09:42:45;3.70;;;1.07;;
12990;SDS011;6560;57.692;11.958;2023-10-31T09:45:11;4.93;;;1.40;;
12990;SDS011;6560;57.692;11.958;2023-10-31T09:47:38;3.47;;;1.33;;
12990;SDS011;6560;57.692;11.958;2023-10-31T09:50:03;4.50;;;1.00;;
12990;SDS011;6560;57.692;11.958;2023-10-31T09:52:29;2.83;;;1.33;;
12990;SDS011;6560;57.692;11.958;2023-10-31T09:54:55;1.63;;;0.90;;
12990;SDS011;6560;57.692;11.958;2023-10-31T09:57:21;1.63;;;0.83;;
12990;SDS011;6560;57.692;11.958;2023-10-31T09:59:47;0.90;;;0.80;;
12990;SDS011;6560;57.692;11.958;2023-10-31T10:02:12;0.60;;;0.60;;
12990;SDS011;6560;57.692;11.958;2023-10-31T10:04:38;1.23;;;0.77;;
12990;SDS011;6560;57.692;11.958;2023-10-31T10:07:04;2.57;;;1.00;;
12990;SDS011;6560;57.692;11.958;2023-10-31T10:09:30;1.77;;;1.30;;
12990;SDS011;6560;57.692;11.958;2023-10-31T10:12:00;2.87;;;1.00;;
12990;SDS011;6560;57.692;11.958;2023-10-31T10:14:26;2.47;;;1.10;;
12990;SDS011;6560;57.692;11.958;2023-10-31T10:16:53;1.33;;;0.50;;
12990;SDS011;6560;57.692;11.958;2023-10-31T10:19:21;1.53;;;0.73;;
12990;SDS011;6560;57.692;11.958;2023-10-31T10:21:54;1.10;;;0.80;;
12990;SDS011;6560;57.692;11.958;2023-10-31T10:24:22;1.90;;;0.67;;
12990;SDS011;6560;57.692;11.958;2023-10-31T10:26:48;1.50;;;0.67;;
12990;SDS011;6560;57.692;11.958;2023-10-31T10:29:14;3.13;;;0.93;;
12990;SDS011;6560;57.692;11.958;2023-10-31T10:31:40;3.60;;;1.00;;
12990;SDS011;6560;57.692;11.958;2023-10-31T10:34:07;0.80;;;0.50;;
12990;SDS011;6560;57.692;11.958;2023-10-31T10:36:33;2.33;;;0.60;;
12990;SDS011;6560;57.692;11.958;2023-10-31T10:38:59;1.87;;;0.47;;
12990;SDS011;6560;57.692;11.958;2023-10-31T10:41:26;0.70;;;0.50;;
12990;SDS011;6560;57.692;11.958;2023-10-31T10:43:55;0.90;;;0.70;;
12990;SDS011;6560;57.692;11.958;2023-10-31T10:46:28;0.90;;;0.50;;
12990;SDS011;6560;57.692;11.958;2023-10-31T10:48:58;0.60;;;0.50;;
12990;SDS011;6560;57.692;11.958;2023-10-31T10:51:50;1.63;;;1.00;;
12990;SDS011;6560;57.692;11.958;2023-10-31T10:54:18;2.67;;;1.13;;
12990;SDS011;6560;57.692;11.958;2023-10-31T10:56:59;1.93;;;1.33;;
12990;SDS011;6560;57.692;11.958;2023-10-31T10:59:49;0.90;;;0.80;;
12990;SDS011;6560;57.692;11.958;2023-10-31T11:02:18;0.93;;;0.60;;
12990;SDS011;6560;57.692;11.958;2023-10-31T11:04:44;1.33;;;0.50;;
12990;SDS011;6560;57.692;11.958;2023-10-31T11:07:09;0.70;;;0.60;;
12990;SDS011;6560;57.692;11.958;2023-10-31T11:09:35;0.93;;;0.70;;
12990;SDS011;6560;57.692;11.958;2023-10-31T11:12:03;8.00;;;0.67;;
12990;SDS011;6560;57.692;11.958;2023-10-31T11:14:30;2.20;;;0.43;;
12990;SDS011;6560;57.692;11.958;2023-10-31T11:16:57;0.87;;;0.20;;
12990;SDS011;6560;57.692;11.958;2023-10-31T11:19:27;0.60;;;0.60;;
12990;SDS011;6560;57.692;11.958;2023-10-31T11:21:54;0.83;;;0.60;;
12990;SDS011;6560;57.692;11.958;2023-10-31T11:24:25;0.27;;;0.27;;
12990;SDS011;6560;57.692;11.958;2023-10-31T11:26:59;0.30;;;0.30;;
12990;SDS011;6560;57.692;11.958;2023-10-31T11:29:26;1.03;;;0.63;;
12990;SDS011;6560;57.692;11.958;2023-10-31T11:31:55;1.17;;;0.70;;
12990;SDS011;6560;57.692;11.958;2023-10-31T11:34:21;0.80;;;0.50;;
12990;SDS011;6560;57.692;11.958;2023-10-31T11:36:47;0.50;;;0.47;;
12990;SDS011;6560;57.692;11.958;2023-10-31T11:39:13;1.17;;;0.77;;
12990;SDS011;6560;57.692;11.958;2023-10-31T11:41:42;1.07;;;0.63;;
12990;SDS011;6560;57.692;11.958;2023-10-31T11:44:13;0.93;;;0.47;;
12990;SDS011;6560;57.692;11.958;2023-10-31T11:46:40;0.50;;;0.50;;
12990;SDS011;6560;57.692;11.958;2023-10-31T11:49:05;0.50;;;0.50;;
12990;SDS011;6560;57.692;11.958;2023-10-31T11:51:32;0.37;;;0.37;;
12990;SDS011;6560;57.692;11.958;2023-10-31T11:53:59;0.30;;;0.30;;
12990;SDS011;6560;57.692;11.958;2023-10-31T11:56:26;0.50;;;0.50;;
12990;SDS011;6560;57.692;11.958;2023-10-31T11:58:58;0.40;;;0.40;;
12990;SDS011;6560;57.692;11.958;2023-10-31T12:01:26;0.50;;;0.50;;
12990;SDS011;6560;57.692;11.958;2023-10-31T12:03:51;1.80;;;0.40;;
12990;SDS011;6560;57.692;11.958;2023-10-31T12:06:17;1.30;;;0.50;;
12990;SDS011;6560;57.692;11.958;2023-10-31T12:08:45;0.40;;;0.40;;
12990;SDS011;6560;57.692;11.958;2023-10-31T12:11:13;1.13;;;0.80;;
12990;SDS011;6560;57.692;11.958;2023-10-31T12:13:53;0.30;;;0.30;;
12990;SDS011;6560;57.692;11.958;2023-10-31T12:16:24;0.80;;;0.50;;
12990;SDS011;6560;57.692;11.958;2023-10-31T12:18:56;1.83;;;0.40;;
12990;SDS011;6560;57.692;11.958;2023-10-31T12:21:43;0.70;;;0.60;;
12990;SDS011;6560;57.692;11.958;2023-10-31T12:24:13;1.20;;;0.57;;
12990;SDS011;6560;57.692;11.958;2023-10-31T12:26:40;3.30;;;0.70;;
12990;SDS011;6560;57.692;11.958;2023-10-31T12:29:10;1.13;;;0.77;;
12990;SDS011;6560;57.692;11.958;2023-10-31T12:31:44;0.43;;;0.27;;
12990;SDS011;6560;57.692;11.958;2023-10-31T12:34:14;0.60;;;0.40;;
12990;SDS011;6560;57.692;11.958;2023-10-31T12:36:40;0.40;;;0.40;;
12990;SDS011;6560;57.692;11.958;2023-10-31T12:39:10;1.07;;;0.77;;
12990;SDS011;6560;57.692;11.958;2023-10-31T12:41:37;2.03;;;0.90;;
12990;SDS011;6560;57.692;11.958;2023-10-31T12:44:04;0.63;;;0.60;;
12990;SDS011;6560;57.692;11.958;2023-10-31T12:46:30;1.57;;;0.83;;
12990;SDS011;6560;57.692;11.958;2023-10-31T12:48:57;0.40;;;0.40;;
12990;SDS011;6560;57.692;11.958;2023-10-31T12:51:23;1.07;;;0.40;;
12990;SDS011;6560;57.692;11.958;2023-10-31T12:53:49;2.47;;;0.60;;
12990;SDS011;6560;57.692;11.958;2023-10-31T12:56:37;3.93;;;0.93;;
12990;SDS011;6560;57.692;11.958;2023-10-31T12:59:04;0.53;;;0.40;;
12990;SDS011;6560;57.692;11.958;2023-10-31T13:01:42;1.13;;;1.13;;
12990;SDS011;6560;57.692;11.958;2023-10-31T13:04:08;0.77;;;0.30;;
12990;SDS011;6560;57.692;11.958;2023-10-31T13:06:34;0.23;;;0.20;;
12990;SDS011;6560;57.692;11.958;2023-10-31T13:09:00;0.47;;;0.37;;
12990;SDS011;6560;57.692;11.958;2023-10-31T13:11:30;0.20;;;0.20;;
12990;SDS011;6560;57.692;11.958;2023-10-31T13:13:56;1.03;;;0.83;;
12990;SDS011;6560;57.692;11.958;2023-10-31T13:16:22;1.77;;;0.50;;
12990;SDS011;6560;57.692;11.958;2023-10-31T13:18:47;0.60;;;0.60;;
12990;SDS011;6560;57.692;11.958;2023-10-31T13:21:12;2.20;;;0.50;;
12990;SDS011;6560;57.692;11.958;2023-10-31T13:23:40;0.43;;;0.40;;
12990;SDS011;6560;57.692;11.958;2023-10-31T13:26:10;0.60;;;0.53;;
12990;SDS011;6560;57.692;11.958;2023-10-31T13:28:35;0.80;;;0.70;;
12990;SDS011;6560;57.692;11.958;2023-10-31T13:31:01;0.53;;;0.53;;
12990;SDS011;6560;57.692;11.958;2023-10-31T13:33:27;1.07;;;0.70;;
12990;SDS011;6560;57.692;11.958;2023-10-31T13:35:53;0.50;;;0.40;;
12990;SDS011;6560;57.692;11.958;2023-10-31T13:38:18;0.40;;;0.40;;
12990;SDS011;6560;57.692;11.958;2023-10-31T13:40:44;0.40;;;0.40;;
12990;SDS011;6560;57.692;11.958;2023-10-31T13:43:09;0.57;;;0.40;;
12990;SDS011;6560;57.692;11.958;2023-10-31T13:45:35;0.40;;;0.40;;
12990;SDS011;6560;57.692;11.958;2023-10-31T13:48:01;0.40;;;0.40;;
12990;SDS011;6560;57.692;11.958;2023-10-31T13:50:26;0.40;;;0.40;;
12990;SDS011;6560;57.692;11.958;2023-10-31T13:52:51;1.00;;;0.40;;
12990;SDS011;6560;57.692;11.958;2023-10-31T13:55:17;0.47;;;0.47;;
12990;SDS011;6560;57.692;11.958;2023-10-31T13:57:43;0.40;;;0.40;;
12990;SDS011;6560;57.692;11.958;2023-10-31T14:00:09;0.40;;;0.40;;
12990;SDS011;6560;57.692;11.958;2023-10-31T14:02:35;1.13;;;0.30;;
12990;SDS011;6560;57.692;11.958;2023-10-31T14:05:01;0.63;;;0.40;;
12990;SDS011;6560;57.692;11.958;2023-10-31T14:07:27;1.07;;;0.47;;
12990;SDS011;6560;57.692;11.958;2023-10-31T14:09:52;1.50;;;0.80;;
12990;SDS011;6560;57.692;11.958;2023-10-31T14:12:21;0.60;;;0.40;;
12990;SDS011;6560;57.692;11.958;2023-10-31T14:14:47;0.40;;;0.37;;
12990;SDS011;6560;57.692;11.958;2023-10-31T14:17:14;0.60;;;0.60;;
12990;SDS011;6560;57.692;11.958;2023-10-31T14:19:42;1.53;;;0.93;;
12990;SDS011;6560;57.692;11.958;2023-10-31T14:22:08;0.70;;;0.63;;
12990;SDS011;6560;57.692;11.958;2023-10-31T14:24:33;1.10;;;0.70;;
12990;SDS011;6560;57.692;11.958;2023-10-31T14:27:00;2.30;;;0.57;;
12990;SDS011;6560;57.692;11.958;2023-10-31T14:29:26;0.60;;;0.50;;
12990;SDS011;6560;57.692;11.958;2023-10-31T14:31:51;3.23;;;0.40;;
12990;SDS011;6560;57.692;11.958;2023-10-31T14:34:19;1.33;;;0.70;;
12990;SDS011;6560;57.692;11.958;2023-10-31T14:36:44;0.40;;;0.40;;
12990;SDS011;6560;57.692;11.958;2023-10-31T14:39:10;0.40;;;0.40;;
12990;SDS011;6560;57.692;11.958;2023-10-31T14:41:36;0.43;;;0.40;;
12990;SDS011;6560;57.692;11.958;2023-10-31T14:44:02;0.40;;;0.40;;